Historique des mesures à Cassis (13260), France
Quotidien Résumé Mars 9, 2017 Unités:  Métrique    US   Métrique/US
« Précédent (Jour)
Suivant (Jour) »
Quotidien Hebdomadaire Mensuel Annuel Période au choix
  Maximum: Minimum: Moyenne:
Température: TemperatureC °C 13.2 °C 15.8 °C
Point de rosée: DewpointC °C 6.7 °C 8 °C
Humidité: Humidity % 50 % 57 %
Vitesse du vent: 0 km/h 0 km/h 15.4 km/h
Rafales: 0 km/h - -
Vent:- - SSW
Pression: PressurehPa hPa 1014.1 hPa -
Précipitations: 0.0 mm    
Historical Graphs
 
 
Mesures pour : Mars 9, 2017
Heure Temperature Point de rosée Pression Vent Vitesse du vent Rafales Humidité Pluie (par heure) Conditions
TemperatureC °C DewpointC °C PressurehPa hPa Calm     Humidity % HourlyPrecipMM mm SoftwareType W/m2
00:11 14.6 °C 6.7 °C 1018.2 hPa NW 30.7 km/h 30.7 km/h 59 % 0.0 mm open2300-1.11 W/m2
01:10 14.4 °C 6.8 °C 1018.2 hPa NW 40.7 km/h 40.7 km/h 60 % 0.0 mm open2300-1.11 W/m2
02:11 13.8 °C 7.1 °C 1017.8 hPa North 14 km/h 52.8 km/h 64 % 0.0 mm open2300-1.11 W/m2
03:10 13.8 °C 7.5 °C 1017.8 hPa NNW 43.5 km/h 43.5 km/h 66 % 0.0 mm open2300-1.11 W/m2
04:11 13.6 °C 7.6 °C 1017.5 hPa NNW 33.6 km/h 33.6 km/h 67 % 0.0 mm open2300-1.11 W/m2
05:10 13.2 °C 7.2 °C 1017.5 hPa NNW 5.6 km/h 46.3 km/h 67 % 0.0 mm open2300-1.11 W/m2
06:11 13.3 °C 7.3 °C 1017.2 hPa North 7.6 km/h 9.3 km/h 67 % 0.0 mm open2300-1.11 W/m2
07:10 13.6 °C 7.6 °C 1017.5 hPa Calm   7.6 km/h 67 % 0.0 mm open2300-1.11 W/m2
08:11 14.4 °C 7.9 °C 1017.5 hPa Calm   5.6 km/h 65 % 0.0 mm open2300-1.11 W/m2
09:10 15.1 °C 8.6 °C 1017.8 hPa ESE 7.6 km/h 13.2 km/h 65 % 0.0 mm open2300-1.11 W/m2
10:11 15.8 °C 9.0 °C 1017.5 hPa North 2.3 km/h 4.7 km/h 64 % 0.0 mm open2300-1.11 W/m2
11:10 17.5 °C 9.1 °C 1017.8 hPa West 9.8 km/h 15.6 km/h 58 % 0.0 mm open2300-1.11 W/m2
12:11 18.5 °C 9.8 °C 1017.2 hPa NNE 12.7 km/h 20.9 km/h 57 % 0.0 mm open2300-1.11 W/m2
13:10 19.4 °C 10.1 °C 1016.5 hPa WNW 20.9 km/h 39.9 km/h 55 % 0.0 mm open2300-1.11 W/m2
14:11 19.8 °C 10.4 °C 1015.8 hPa NW 14.5 km/h 46.8 km/h 55 % 0.0 mm open2300-1.11 W/m2
15:10 20.3 °C 10.4 °C 1015.1 hPa NW 15 km/h 30.7 km/h 53 % 0.0 mm open2300-1.11 W/m2
16:11 20.2 °C 10.0 °C 1014.4 hPa NNW 53.3 km/h 67.9 km/h 52 % 0.0 mm open2300-1.11 W/m2
17:10 19.9 °C 10.3 °C 1014.4 hPa Calm   27.2 km/h 54 % 0.0 mm open2300-1.11 W/m2
18:11 19.3 °C 9.2 °C 1014.4 hPa North 13.2 km/h 13.2 km/h 52 % 0.0 mm open2300-1.11 W/m2
19:10 18.3 °C 8.2 °C 1014.1 hPa North 17.9 km/h 17.9 km/h 52 % 0.0 mm open2300-1.11 W/m2
20:11 17.9 °C 7.3 °C 1014.4 hPa NNW 15 km/h 30.1 km/h 50 % 0.0 mm open2300-1.11 W/m2
21:10 16.9 °C 7.2 °C 1014.8 hPa WNW 22 km/h 36 km/h 53 % 0.0 mm open2300-1.11 W/m2
22:11 15.9 °C 7.1 °C 1014.8 hPa Calm   17.4 km/h 56 % 0.0 mm open2300-1.11 W/m2
23:10 15.6 °C 7.3 °C 1014.8 hPa North 4.7 km/h 9.8 km/h 58 % 0.0 mm open2300-1.11 W/m2
Observations météo à CASSIS
WU-History script by Weather Underground - 1 mb